sensor_id;sensor_type;location;lat;lon;timestamp;P1;durP1;ratioP1;P2;durP2;ratioP2
27999;SDS011;15328;50.860;10.562;2022-12-18T00:04:51;6.03;;;2.47;;
27999;SDS011;15328;50.860;10.562;2022-12-18T00:09:51;6.07;;;2.53;;
27999;SDS011;15328;50.860;10.562;2022-12-18T00:14:52;4.40;;;2.47;;
27999;SDS011;15328;50.860;10.562;2022-12-18T00:19:52;7.93;;;3.45;;
27999;SDS011;15328;50.860;10.562;2022-12-18T00:24:52;11.13;;;3.75;;
27999;SDS011;15328;50.860;10.562;2022-12-18T00:29:53;10.38;;;4.13;;
27999;SDS011;15328;50.860;10.562;2022-12-18T00:34:53;7.85;;;3.42;;
27999;SDS011;15328;50.860;10.562;2022-12-18T00:39:53;8.88;;;3.13;;
27999;SDS011;15328;50.860;10.562;2022-12-18T00:44:54;7.25;;;2.97;;
27999;SDS011;15328;50.860;10.562;2022-12-18T00:49:54;7.90;;;3.25;;
27999;SDS011;15328;50.860;10.562;2022-12-18T00:54:54;9.43;;;3.05;;
27999;SDS011;15328;50.860;10.562;2022-12-18T00:59:55;6.32;;;2.72;;
27999;SDS011;15328;50.860;10.562;2022-12-18T01:04:55;5.35;;;2.00;;
27999;SDS011;15328;50.860;10.562;2022-12-18T01:09:56;4.13;;;1.83;;
27999;SDS011;15328;50.860;10.562;2022-12-18T01:14:56;3.45;;;1.70;;
27999;SDS011;15328;50.860;10.562;2022-12-18T01:19:56;3.83;;;2.10;;
27999;SDS011;15328;50.860;10.562;2022-12-18T01:24:57;7.22;;;2.53;;
27999;SDS011;15328;50.860;10.562;2022-12-18T01:29:57;6.53;;;2.30;;
27999;SDS011;15328;50.860;10.562;2022-12-18T01:34:57;4.23;;;2.10;;
27999;SDS011;15328;50.860;10.562;2022-12-18T01:39:58;5.63;;;2.38;;
27999;SDS011;15328;50.860;10.562;2022-12-18T01:50:13;5.53;;;1.80;;
27999;SDS011;15328;50.860;10.562;2022-12-18T01:55:41;3.20;;;1.58;;
27999;SDS011;15328;50.860;10.562;2022-12-18T02:00:45;4.78;;;1.40;;
27999;SDS011;15328;50.860;10.562;2022-12-18T02:05:47;5.80;;;1.50;;
27999;SDS011;15328;50.860;10.562;2022-12-18T02:21:39;2.70;;;1.30;;
27999;SDS011;15328;50.860;10.562;2022-12-18T02:26:50;3.38;;;1.25;;
27999;SDS011;15328;50.860;10.562;2022-12-18T02:31:53;1.95;;;1.20;;
27999;SDS011;15328;50.860;10.562;2022-12-18T02:36:57;2.13;;;1.00;;
27999;SDS011;15328;50.860;10.562;2022-12-18T02:42:00;5.32;;;2.33;;
27999;SDS011;15328;50.860;10.562;2022-12-18T02:47:08;6.53;;;2.85;;
27999;SDS011;15328;50.860;10.562;2022-12-18T02:52:21;6.25;;;3.40;;
27999;SDS011;15328;50.860;10.562;2022-12-18T02:57:36;10.27;;;4.60;;
27999;SDS011;15328;50.860;10.562;2022-12-18T03:02:57;9.07;;;3.10;;
27999;SDS011;15328;50.860;10.562;2022-12-18T03:08:14;6.72;;;2.50;;
27999;SDS011;15328;50.860;10.562;2022-12-18T03:13:44;4.35;;;2.15;;
27999;SDS011;15328;50.860;10.562;2022-12-18T03:18:52;1.67;;;1.13;;
27999;SDS011;15328;50.860;10.562;2022-12-18T03:24:05;3.97;;;1.00;;
27999;SDS011;15328;50.860;10.562;2022-12-18T03:29:09;2.83;;;1.08;;
27999;SDS011;15328;50.860;10.562;2022-12-18T03:34:17;1.73;;;0.90;;
27999;SDS011;15328;50.860;10.562;2022-12-18T03:39:23;2.80;;;1.50;;
27999;SDS011;15328;50.860;10.562;2022-12-18T03:54:59;2.63;;;1.40;;
27999;SDS011;15328;50.860;10.562;2022-12-18T04:00:06;4.07;;;1.20;;
27999;SDS011;15328;50.860;10.562;2022-12-18T04:05:11;4.88;;;1.50;;
27999;SDS011;15328;50.860;10.562;2022-12-18T04:10:14;3.97;;;1.50;;
27999;SDS011;15328;50.860;10.562;2022-12-18T04:15:15;3.58;;;2.08;;
27999;SDS011;15328;50.860;10.562;2022-12-18T04:20:16;5.53;;;1.80;;
27999;SDS011;15328;50.860;10.562;2022-12-18T04:25:16;2.90;;;1.58;;
27999;SDS011;15328;50.860;10.562;2022-12-18T04:30:17;5.70;;;1.50;;
27999;SDS011;15328;50.860;10.562;2022-12-18T04:35:17;5.35;;;1.92;;
27999;SDS011;15328;50.860;10.562;2022-12-18T04:40:17;5.63;;;2.47;;
27999;SDS011;15328;50.860;10.562;2022-12-18T04:45:18;5.50;;;2.38;;
27999;SDS011;15328;50.860;10.562;2022-12-18T04:50:18;5.15;;;2.03;;
27999;SDS011;15328;50.860;10.562;2022-12-18T04:55:18;5.10;;;2.30;;
27999;SDS011;15328;50.860;10.562;2022-12-18T05:00:19;5.25;;;1.83;;
27999;SDS011;15328;50.860;10.562;2022-12-18T05:05:20;4.40;;;1.70;;
27999;SDS011;15328;50.860;10.562;2022-12-18T05:10:21;6.32;;;1.90;;
27999;SDS011;15328;50.860;10.562;2022-12-18T05:15:21;5.75;;;2.22;;
27999;SDS011;15328;50.860;10.562;2022-12-18T05:20:21;4.20;;;2.22;;
27999;SDS011;15328;50.860;10.562;2022-12-18T05:25:22;3.90;;;2.08;;
27999;SDS011;15328;50.860;10.562;2022-12-18T05:30:22;3.08;;;1.50;;
27999;SDS011;15328;50.860;10.562;2022-12-18T05:35:23;2.93;;;1.40;;
27999;SDS011;15328;50.860;10.562;2022-12-18T05:40:23;2.13;;;1.23;;
27999;SDS011;15328;50.860;10.562;2022-12-18T05:45:24;2.20;;;1.38;;
27999;SDS011;15328;50.860;10.562;2022-12-18T05:50:24;3.08;;;1.20;;
27999;SDS011;15328;50.860;10.562;2022-12-18T05:55:25;2.88;;;1.30;;
27999;SDS011;15328;50.860;10.562;2022-12-18T06:00:26;4.28;;;1.38;;
27999;SDS011;15328;50.860;10.562;2022-12-18T06:05:26;3.05;;;1.40;;
27999;SDS011;15328;50.860;10.562;2022-12-18T06:10:30;3.28;;;1.40;;
27999;SDS011;15328;50.860;10.562;2022-12-18T06:15:31;3.13;;;1.20;;
27999;SDS011;15328;50.860;10.562;2022-12-18T06:20:32;2.55;;;1.45;;
27999;SDS011;15328;50.860;10.562;2022-12-18T06:25:42;3.42;;;1.67;;
27999;SDS011;15328;50.860;10.562;2022-12-18T06:30:45;4.32;;;2.00;;
27999;SDS011;15328;50.860;10.562;2022-12-18T06:35:48;3.95;;;2.15;;
27999;SDS011;15328;50.860;10.562;2022-12-18T06:40:48;4.20;;;2.03;;
27999;SDS011;15328;50.860;10.562;2022-12-18T06:45:49;4.97;;;2.40;;
27999;SDS011;15328;50.860;10.562;2022-12-18T06:50:58;5.05;;;1.92;;
27999;SDS011;15328;50.860;10.562;2022-12-18T07:01:06;3.65;;;2.03;;
27999;SDS011;15328;50.860;10.562;2022-12-18T07:06:16;4.50;;;1.80;;
27999;SDS011;15328;50.860;10.562;2022-12-18T07:11:19;5.53;;;2.60;;
27999;SDS011;15328;50.860;10.562;2022-12-18T07:16:19;6.25;;;3.30;;
27999;SDS011;15328;50.860;10.562;2022-12-18T07:21:21;6.88;;;2.80;;
27999;SDS011;15328;50.860;10.562;2022-12-18T07:26:22;3.35;;;2.25;;
27999;SDS011;15328;50.860;10.562;2022-12-18T07:31:23;7.72;;;2.67;;
27999;SDS011;15328;50.860;10.562;2022-12-18T07:36:26;8.95;;;2.72;;
27999;SDS011;15328;50.860;10.562;2022-12-18T07:41:29;11.20;;;4.55;;
27999;SDS011;15328;50.860;10.562;2022-12-18T07:46:29;14.13;;;4.82;;
27999;SDS011;15328;50.860;10.562;2022-12-18T07:51:30;10.32;;;4.40;;
27999;SDS011;15328;50.860;10.562;2022-12-18T07:56:30;10.27;;;4.57;;
27999;SDS011;15328;50.860;10.562;2022-12-18T08:01:30;12.90;;;5.93;;
27999;SDS011;15328;50.860;10.562;2022-12-18T08:06:31;19.58;;;8.35;;
27999;SDS011;15328;50.860;10.562;2022-12-18T08:11:32;23.73;;;10.30;;
27999;SDS011;15328;50.860;10.562;2022-12-18T08:16:32;24.70;;;11.27;;
27999;SDS011;15328;50.860;10.562;2022-12-18T08:21:36;23.73;;;10.48;;
27999;SDS011;15328;50.860;10.562;2022-12-18T08:26:40;37.70;;;15.02;;
27999;SDS011;15328;50.860;10.562;2022-12-18T08:31:40;27.40;;;11.75;;
27999;SDS011;15328;50.860;10.562;2022-12-18T08:36:43;19.48;;;9.35;;
27999;SDS011;15328;50.860;10.562;2022-12-18T08:41:44;22.45;;;9.05;;
27999;SDS011;15328;50.860;10.562;2022-12-18T08:47:05;17.33;;;6.97;;
27999;SDS011;15328;50.860;10.562;2022-12-18T08:52:06;19.45;;;7.82;;
27999;SDS011;15328;50.860;10.562;2022-12-18T08:57:07;27.23;;;9.13;;
27999;SDS011;15328;50.860;10.562;2022-12-18T09:02:09;21.40;;;8.40;;
27999;SDS011;15328;50.860;10.562;2022-12-18T09:07:10;15.80;;;5.43;;
27999;SDS011;15328;50.860;10.562;2022-12-18T09:12:11;12.07;;;4.88;;
27999;SDS011;15328;50.860;10.562;2022-12-18T09:17:11;16.58;;;7.25;;
27999;SDS011;15328;50.860;10.562;2022-12-18T09:22:11;18.80;;;10.23;;
27999;SDS011;15328;50.860;10.562;2022-12-18T09:27:12;22.07;;;10.83;;
27999;SDS011;15328;50.860;10.562;2022-12-18T09:32:12;46.88;;;19.75;;
27999;SDS011;15328;50.860;10.562;2022-12-18T09:37:12;16.30;;;6.45;;
27999;SDS011;15328;50.860;10.562;2022-12-18T09:42:20;20.35;;;11.20;;
27999;SDS011;15328;50.860;10.562;2022-12-18T09:47:27;21.33;;;9.52;;
27999;SDS011;15328;50.860;10.562;2022-12-18T09:52:34;25.60;;;13.65;;
27999;SDS011;15328;50.860;10.562;2022-12-18T09:57:42;33.97;;;16.70;;
27999;SDS011;15328;50.860;10.562;2022-12-18T10:02:47;39.80;;;18.52;;
27999;SDS011;15328;50.860;10.562;2022-12-18T10:24:15;18.73;;;9.00;;
27999;SDS011;15328;50.860;10.562;2022-12-18T10:29:41;21.80;;;10.05;;
27999;SDS011;15328;50.860;10.562;2022-12-18T10:34:47;13.85;;;6.70;;
27999;SDS011;15328;50.860;10.562;2022-12-18T10:40:08;21.02;;;11.95;;
27999;SDS011;15328;50.860;10.562;2022-12-18T10:45:18;10.25;;;5.50;;
27999;SDS011;15328;50.860;10.562;2022-12-18T10:50:40;10.40;;;5.20;;
27999;SDS011;15328;50.860;10.562;2022-12-18T10:55:39;5.97;;;3.00;;
27999;SDS011;15328;50.860;10.562;2022-12-18T11:01:10;22.20;;;10.88;;
27999;SDS011;15328;50.860;10.562;2022-12-18T11:06:17;39.67;;;17.58;;
27999;SDS011;15328;50.860;10.562;2022-12-18T11:11:22;40.67;;;18.35;;
27999;SDS011;15328;50.860;10.562;2022-12-18T11:16:26;36.88;;;17.27;;
27999;SDS011;15328;50.860;10.562;2022-12-18T11:21:40;41.45;;;17.67;;
27999;SDS011;15328;50.860;10.562;2022-12-18T11:26:46;30.30;;;14.52;;
27999;SDS011;15328;50.860;10.562;2022-12-18T11:31:50;24.63;;;11.88;;
27999;SDS011;15328;50.860;10.562;2022-12-18T11:36:51;21.63;;;11.35;;
27999;SDS011;15328;50.860;10.562;2022-12-18T11:41:58;21.13;;;11.55;;
27999;SDS011;15328;50.860;10.562;2022-12-18T11:52:29;22.73;;;11.25;;
27999;SDS011;15328;50.860;10.562;2022-12-18T11:57:39;22.35;;;12.15;;
27999;SDS011;15328;50.860;10.562;2022-12-18T12:19:20;29.33;;;11.75;;
27999;SDS011;15328;50.860;10.562;2022-12-18T12:40:27;26.38;;;11.90;;
27999;SDS011;15328;50.860;10.562;2022-12-18T12:45:36;22.33;;;11.37;;
27999;SDS011;15328;50.860;10.562;2022-12-18T12:50:42;21.15;;;9.63;;
27999;SDS011;15328;50.860;10.562;2022-12-18T12:55:44;19.33;;;11.30;;
27999;SDS011;15328;50.860;10.562;2022-12-18T13:00:56;23.38;;;11.60;;
27999;SDS011;15328;50.860;10.562;2022-12-18T13:06:25;32.03;;;14.60;;
27999;SDS011;15328;50.860;10.562;2022-12-18T13:11:47;36.35;;;15.80;;
27999;SDS011;15328;50.860;10.562;2022-12-18T13:22:28;27.87;;;12.80;;
27999;SDS011;15328;50.860;10.562;2022-12-18T13:32:47;31.75;;;14.13;;
27999;SDS011;15328;50.860;10.562;2022-12-18T13:37:51;26.67;;;12.07;;
27999;SDS011;15328;50.860;10.562;2022-12-18T13:42:53;30.85;;;16.33;;
27999;SDS011;15328;50.860;10.562;2022-12-18T13:48:32;37.03;;;16.63;;
27999;SDS011;15328;50.860;10.562;2022-12-18T13:53:43;28.33;;;13.82;;
27999;SDS011;15328;50.860;10.562;2022-12-18T13:59:02;26.85;;;13.35;;
27999;SDS011;15328;50.860;10.562;2022-12-18T14:04:11;27.02;;;12.38;;
27999;SDS011;15328;50.860;10.562;2022-12-18T14:14:25;37.20;;;17.67;;
27999;SDS011;15328;50.860;10.562;2022-12-18T14:19:25;66.22;;;27.90;;
27999;SDS011;15328;50.860;10.562;2022-12-18T14:24:26;173.20;;;68.28;;
27999;SDS011;15328;50.860;10.562;2022-12-18T14:29:27;108.10;;;45.88;;
27999;SDS011;15328;50.860;10.562;2022-12-18T14:34:29;72.82;;;32.45;;
27999;SDS011;15328;50.860;10.562;2022-12-18T14:39:29;54.22;;;27.58;;
27999;SDS011;15328;50.860;10.562;2022-12-18T14:44:30;39.10;;;18.83;;
27999;SDS011;15328;50.860;10.562;2022-12-18T14:49:32;43.08;;;19.13;;
27999;SDS011;15328;50.860;10.562;2022-12-18T14:54:38;47.65;;;20.88;;
27999;SDS011;15328;50.860;10.562;2022-12-18T14:59:39;33.03;;;15.95;;
27999;SDS011;15328;50.860;10.562;2022-12-18T15:04:40;27.42;;;13.82;;
27999;SDS011;15328;50.860;10.562;2022-12-18T15:10:00;17.92;;;9.55;;
27999;SDS011;15328;50.860;10.562;2022-12-18T15:15:41;5.40;;;2.15;;
27999;SDS011;15328;50.860;10.562;2022-12-18T15:21:19;3.15;;;1.95;;
27999;SDS011;15328;50.860;10.562;2022-12-18T15:25:59;3.60;;;1.80;;
27999;SDS011;15328;50.860;10.562;2022-12-18T15:43:07;5.15;;;2.15;;
27999;SDS011;15328;50.860;10.562;2022-12-18T15:48:26;5.00;;;2.30;;
27999;SDS011;15328;50.860;10.562;2022-12-18T15:53:28;4.07;;;1.92;;
27999;SDS011;15328;50.860;10.562;2022-12-18T15:58:32;5.78;;;2.35;;
27999;SDS011;15328;50.860;10.562;2022-12-18T16:03:33;4.20;;;2.30;;
27999;SDS011;15328;50.860;10.562;2022-12-18T16:08:33;3.35;;;1.92;;
27999;SDS011;15328;50.860;10.562;2022-12-18T16:13:35;4.32;;;2.17;;
27999;SDS011;15328;50.860;10.562;2022-12-18T16:18:36;4.55;;;1.83;;
27999;SDS011;15328;50.860;10.562;2022-12-18T16:23:36;4.28;;;1.90;;
27999;SDS011;15328;50.860;10.562;2022-12-18T16:28:37;5.72;;;2.92;;
27999;SDS011;15328;50.860;10.562;2022-12-18T16:33:37;4.30;;;2.47;;
27999;SDS011;15328;50.860;10.562;2022-12-18T16:38:37;5.05;;;2.70;;
27999;SDS011;15328;50.860;10.562;2022-12-18T16:43:38;6.03;;;3.03;;
27999;SDS011;15328;50.860;10.562;2022-12-18T16:48:38;5.15;;;2.50;;
27999;SDS011;15328;50.860;10.562;2022-12-18T16:53:39;4.50;;;2.33;;
27999;SDS011;15328;50.860;10.562;2022-12-18T16:58:39;4.38;;;2.20;;
27999;SDS011;15328;50.860;10.562;2022-12-18T17:03:39;5.18;;;2.60;;
27999;SDS011;15328;50.860;10.562;2022-12-18T17:08:40;5.50;;;2.45;;
27999;SDS011;15328;50.860;10.562;2022-12-18T17:13:40;4.97;;;2.33;;
27999;SDS011;15328;50.860;10.562;2022-12-18T17:18:41;5.03;;;2.50;;
27999;SDS011;15328;50.860;10.562;2022-12-18T17:23:41;4.90;;;2.70;;
27999;SDS011;15328;50.860;10.562;2022-12-18T17:28:43;7.30;;;3.75;;
27999;SDS011;15328;50.860;10.562;2022-12-18T17:33:43;5.07;;;2.30;;
27999;SDS011;15328;50.860;10.562;2022-12-18T17:38:51;5.03;;;2.92;;
27999;SDS011;15328;50.860;10.562;2022-12-18T17:43:56;6.15;;;2.97;;
27999;SDS011;15328;50.860;10.562;2022-12-18T17:48:58;5.57;;;2.78;;
27999;SDS011;15328;50.860;10.562;2022-12-18T17:54:00;4.00;;;2.30;;
27999;SDS011;15328;50.860;10.562;2022-12-18T17:59:00;4.72;;;2.55;;
27999;SDS011;15328;50.860;10.562;2022-12-18T18:04:02;4.78;;;2.40;;
27999;SDS011;15328;50.860;10.562;2022-12-18T18:09:03;5.07;;;2.33;;
27999;SDS011;15328;50.860;10.562;2022-12-18T18:14:05;6.50;;;3.03;;
27999;SDS011;15328;50.860;10.562;2022-12-18T18:19:11;5.57;;;3.17;;
27999;SDS011;15328;50.860;10.562;2022-12-18T18:24:14;7.60;;;3.30;;
27999;SDS011;15328;50.860;10.562;2022-12-18T18:29:18;6.95;;;3.13;;
27999;SDS011;15328;50.860;10.562;2022-12-18T18:34:21;6.63;;;3.03;;
27999;SDS011;15328;50.860;10.562;2022-12-18T18:39:26;6.10;;;3.10;;
27999;SDS011;15328;50.860;10.562;2022-12-18T18:44:27;7.10;;;3.38;;
27999;SDS011;15328;50.860;10.562;2022-12-18T18:49:27;7.30;;;3.83;;
27999;SDS011;15328;50.860;10.562;2022-12-18T18:54:28;10.38;;;4.30;;
27999;SDS011;15328;50.860;10.562;2022-12-18T18:59:30;8.40;;;4.28;;
27999;SDS011;15328;50.860;10.562;2022-12-18T19:04:31;10.02;;;4.78;;
27999;SDS011;15328;50.860;10.562;2022-12-18T19:09:32;9.32;;;4.28;;
27999;SDS011;15328;50.860;10.562;2022-12-18T19:14:35;12.50;;;5.40;;
27999;SDS011;15328;50.860;10.562;2022-12-18T19:19:35;11.48;;;5.60;;
27999;SDS011;15328;50.860;10.562;2022-12-18T19:24:35;9.55;;;4.72;;
27999;SDS011;15328;50.860;10.562;2022-12-18T19:29:36;9.57;;;5.30;;
27999;SDS011;15328;50.860;10.562;2022-12-18T19:34:36;12.00;;;4.97;;
27999;SDS011;15328;50.860;10.562;2022-12-18T19:39:37;11.88;;;5.55;;
27999;SDS011;15328;50.860;10.562;2022-12-18T19:44:37;12.83;;;5.33;;
27999;SDS011;15328;50.860;10.562;2022-12-18T19:49:37;11.03;;;5.13;;
27999;SDS011;15328;50.860;10.562;2022-12-18T19:54:38;12.82;;;5.65;;
27999;SDS011;15328;50.860;10.562;2022-12-18T19:59:38;9.60;;;4.70;;
27999;SDS011;15328;50.860;10.562;2022-12-18T20:04:39;11.52;;;4.65;;
27999;SDS011;15328;50.860;10.562;2022-12-18T20:09:39;11.48;;;5.30;;
27999;SDS011;15328;50.860;10.562;2022-12-18T20:14:39;10.73;;;4.90;;
27999;SDS011;15328;50.860;10.562;2022-12-18T20:19:40;10.32;;;4.65;;
27999;SDS011;15328;50.860;10.562;2022-12-18T20:24:40;11.45;;;4.80;;
27999;SDS011;15328;50.860;10.562;2022-12-18T20:29:41;8.68;;;4.63;;
27999;SDS011;15328;50.860;10.562;2022-12-18T20:34:42;9.38;;;4.80;;
27999;SDS011;15328;50.860;10.562;2022-12-18T20:39:42;10.02;;;5.45;;
27999;SDS011;15328;50.860;10.562;2022-12-18T20:44:43;11.40;;;5.37;;
27999;SDS011;15328;50.860;10.562;2022-12-18T20:49:44;11.20;;;5.25;;
27999;SDS011;15328;50.860;10.562;2022-12-18T20:54:45;12.48;;;5.43;;
27999;SDS011;15328;50.860;10.562;2022-12-18T20:59:45;10.70;;;5.50;;
27999;SDS011;15328;50.860;10.562;2022-12-18T21:04:45;10.93;;;4.88;;
27999;SDS011;15328;50.860;10.562;2022-12-18T21:09:46;12.23;;;4.97;;
27999;SDS011;15328;50.860;10.562;2022-12-18T21:14:46;10.00;;;5.25;;
27999;SDS011;15328;50.860;10.562;2022-12-18T21:19:46;10.55;;;5.45;;
27999;SDS011;15328;50.860;10.562;2022-12-18T21:24:47;10.85;;;4.80;;
27999;SDS011;15328;50.860;10.562;2022-12-18T21:29:57;12.27;;;5.00;;
27999;SDS011;15328;50.860;10.562;2022-12-18T21:35:00;11.45;;;5.63;;
27999;SDS011;15328;50.860;10.562;2022-12-18T21:40:02;12.45;;;5.55;;
27999;SDS011;15328;50.860;10.562;2022-12-18T21:45:03;11.40;;;5.57;;
27999;SDS011;15328;50.860;10.562;2022-12-18T21:50:07;11.27;;;6.07;;
27999;SDS011;15328;50.860;10.562;2022-12-18T21:55:08;12.68;;;6.15;;
27999;SDS011;15328;50.860;10.562;2022-12-18T22:00:11;12.70;;;5.80;;
27999;SDS011;15328;50.860;10.562;2022-12-18T22:05:13;11.07;;;6.03;;
27999;SDS011;15328;50.860;10.562;2022-12-18T22:10:15;12.98;;;5.43;;
27999;SDS011;15328;50.860;10.562;2022-12-18T22:15:19;59.20;;;26.40;;
27999;SDS011;15328;50.860;10.562;2022-12-18T22:20:23;13.25;;;7.05;;
27999;SDS011;15328;50.860;10.562;2022-12-18T22:25:24;14.25;;;6.00;;
27999;SDS011;15328;50.860;10.562;2022-12-18T22:30:27;13.27;;;6.38;;
27999;SDS011;15328;50.860;10.562;2022-12-18T22:35:30;14.52;;;6.13;;
27999;SDS011;15328;50.860;10.562;2022-12-18T22:40:31;12.02;;;5.85;;
27999;SDS011;15328;50.860;10.562;2022-12-18T22:45:37;12.63;;;5.90;;
27999;SDS011;15328;50.860;10.562;2022-12-18T22:50:37;14.98;;;6.80;;
27999;SDS011;15328;50.860;10.562;2022-12-18T22:55:38;12.63;;;6.40;;
27999;SDS011;15328;50.860;10.562;2022-12-18T23:00:39;14.85;;;7.00;;
27999;SDS011;15328;50.860;10.562;2022-12-18T23:05:40;11.45;;;5.82;;
27999;SDS011;15328;50.860;10.562;2022-12-18T23:10:40;13.75;;;7.03;;
27999;SDS011;15328;50.860;10.562;2022-12-18T23:15:41;11.57;;;6.53;;
27999;SDS011;15328;50.860;10.562;2022-12-18T23:20:46;13.07;;;6.30;;
27999;SDS011;15328;50.860;10.562;2022-12-18T23:25:47;12.50;;;6.30;;
27999;SDS011;15328;50.860;10.562;2022-12-18T23:30:47;15.55;;;7.40;;
27999;SDS011;15328;50.860;10.562;2022-12-18T23:35:51;14.32;;;7.63;;
27999;SDS011;15328;50.860;10.562;2022-12-18T23:40:51;14.85;;;7.57;;
27999;SDS011;15328;50.860;10.562;2022-12-18T23:45:52;13.60;;;7.20;;
27999;SDS011;15328;50.860;10.562;2022-12-18T23:50:53;16.33;;;7.43;;
27999;SDS011;15328;50.860;10.562;2022-12-18T23:55:53;17.77;;;8.40;;
